createdAt,value
2023-02-21T00:00:52.321Z,8.77
2023-02-21T00:03:55.730Z,7.57
2023-02-21T00:07:02.165Z,8.20
2023-02-21T00:10:05.603Z,8.60
2023-02-21T00:13:08.662Z,8.63
2023-02-21T00:16:12.031Z,8.45
2023-02-21T00:19:15.346Z,6.32
2023-02-21T00:22:18.857Z,4.43
2023-02-21T00:25:23.007Z,2.53
2023-02-21T00:28:26.201Z,2.22
2023-02-21T00:31:29.906Z,2.33
2023-02-21T00:34:33.501Z,2.50
2023-02-21T00:37:36.775Z,2.42
2023-02-21T00:40:40.663Z,1.92
2023-02-21T00:43:52.656Z,1.77
2023-02-21T00:46:55.929Z,1.20
2023-02-21T00:49:59.440Z,1.23
2023-02-21T00:53:03.194Z,1.33
2023-02-21T00:56:06.641Z,1.25
2023-02-21T00:59:10.111Z,1.30
2023-02-21T01:02:13.393Z,1.33
2023-02-21T01:05:16.673Z,1.17
2023-02-21T01:08:19.837Z,1.30
2023-02-21T01:11:23.355Z,1.63
2023-02-21T01:14:28.321Z,1.27
2023-02-21T01:17:31.828Z,1.50
2023-02-21T01:20:34.868Z,1.33
2023-02-21T01:23:38.434Z,1.23
2023-02-21T01:26:41.884Z,1.50
2023-02-21T01:29:45.163Z,1.48
2023-02-21T01:32:48.647Z,2.03
2023-02-21T01:35:52.478Z,1.70
2023-02-21T01:38:55.538Z,1.80
2023-02-21T01:41:59.488Z,1.60
2023-02-21T01:45:05.735Z,2.08
2023-02-21T01:48:09.305Z,2.00
2023-02-21T01:51:16.367Z,1.90
2023-02-21T01:54:20.676Z,1.52
2023-02-21T01:57:25.533Z,2.00
2023-02-21T02:00:31.548Z,1.98
2023-02-21T02:03:38.038Z,1.95
2023-02-21T02:06:42.084Z,2.20
2023-02-21T02:09:45.618Z,1.80
2023-02-21T02:13:01.712Z,1.63
2023-02-21T02:16:05.725Z,1.88
2023-02-21T02:19:20.371Z,1.90
2023-02-21T02:22:42.651Z,2.28
2023-02-21T02:25:49.383Z,1.80
2023-02-21T02:29:02.465Z,1.85
2023-02-21T02:31:50.424Z,2.00
2023-02-21T02:34:58.998Z,1.98
2023-02-21T02:37:51.720Z,1.52
2023-02-21T02:40:39.881Z,1.70
2023-02-21T02:43:32.277Z,1.25
2023-02-21T02:46:23.639Z,1.63
2023-02-21T02:49:24.564Z,1.45
2023-02-21T02:52:09.891Z,1.30
2023-02-21T02:55:21.410Z,1.42
2023-02-21T02:58:10.549Z,1.33
2023-02-21T03:01:16.843Z,1.17
2023-02-21T03:04:32.202Z,1.23
2023-02-21T03:07:22.819Z,1.25
2023-02-21T03:10:50.545Z,1.20
2023-02-21T03:13:48.985Z,1.13
2023-02-21T03:16:57.402Z,1.30
2023-02-21T03:19:46.042Z,1.10
2023-02-21T03:22:32.197Z,1.27
2023-02-21T03:25:18.969Z,1.40
2023-02-21T03:28:05.361Z,1.30
2023-02-21T03:30:59.094Z,1.52
2023-02-21T03:33:44.981Z,1.10
2023-02-21T03:36:31.403Z,1.25
2023-02-21T03:39:16.720Z,1.35
2023-02-21T03:42:01.858Z,1.35
2023-02-21T03:44:47.378Z,1.30
2023-02-21T03:47:32.866Z,1.50
2023-02-21T03:50:17.848Z,1.83
2023-02-21T03:53:03.521Z,1.65
2023-02-21T03:55:50.692Z,1.30
2023-02-21T03:58:41.333Z,1.45
2023-02-21T04:01:26.430Z,1.13
2023-02-21T04:04:12.964Z,1.30
2023-02-21T04:06:58.237Z,1.10
2023-02-21T04:09:44.177Z,1.02
2023-02-21T04:12:33.535Z,1.10
2023-02-21T04:15:18.303Z,1.00
2023-02-21T04:18:04.616Z,1.20
2023-02-21T04:20:50.653Z,1.02
2023-02-21T04:23:37.130Z,1.92
2023-02-21T04:26:23.770Z,1.80
2023-02-21T04:29:09.101Z,1.40
2023-02-21T04:31:55.214Z,1.25
2023-02-21T04:34:40.762Z,1.40
2023-02-21T04:37:25.918Z,1.30
2023-02-21T04:40:12.142Z,1.55
2023-02-21T04:42:56.840Z,2.00
2023-02-21T04:45:41.780Z,1.60
2023-02-21T04:48:26.971Z,1.98
2023-02-21T04:51:15.330Z,1.50
2023-02-21T04:54:00.654Z,1.63
2023-02-21T04:56:45.618Z,1.83
2023-02-21T04:59:30.360Z,2.15
2023-02-21T05:02:15.586Z,2.90
2023-02-21T05:05:00.232Z,5.60
2023-02-21T05:07:45.090Z,5.65
2023-02-21T05:10:44.595Z,8.30
2023-02-21T05:13:30.375Z,4.22
2023-02-21T05:16:15.700Z,2.97
2023-02-21T05:19:01.968Z,2.08
2023-02-21T05:21:46.787Z,3.30
2023-02-21T05:24:31.895Z,3.20
2023-02-21T05:27:19.607Z,2.83
2023-02-21T05:30:05.150Z,3.55
2023-02-21T05:32:50.214Z,4.93
2023-02-21T05:38:21.193Z,5.70
2023-02-21T05:41:06.577Z,5.55
2023-02-21T05:43:51.697Z,5.75
2023-02-21T05:46:37.063Z,4.95
2023-02-21T05:49:21.642Z,4.28
2023-02-21T05:52:07.203Z,5.38
2023-02-21T05:54:52.468Z,4.32
2023-02-21T05:57:38.756Z,4.68
2023-02-21T06:00:27.799Z,2.60
2023-02-21T06:03:28.477Z,2.55
2023-02-21T06:06:16.761Z,2.42
2023-02-21T06:09:02.395Z,1.95
2023-02-21T06:11:49.155Z,2.20
2023-02-21T06:14:34.260Z,2.00
2023-02-21T06:17:19.088Z,1.92
2023-02-21T06:23:19.607Z,2.97
2023-02-21T06:26:05.653Z,2.60
2023-02-21T06:28:51.844Z,2.55
2023-02-21T06:31:39.790Z,2.17
2023-02-21T06:34:29.978Z,2.45
2023-02-21T06:37:48.549Z,1.83
2023-02-21T06:40:33.571Z,2.58
2023-02-21T06:43:18.481Z,2.75
2023-02-21T06:46:04.231Z,3.30
2023-02-21T06:48:49.877Z,4.20
2023-02-21T06:51:40.079Z,4.55
2023-02-21T06:54:33.805Z,3.67
2023-02-21T06:57:19.599Z,4.68
2023-02-21T07:00:05.895Z,3.10
2023-02-21T07:02:50.628Z,3.80
2023-02-21T07:05:49.910Z,4.57
2023-02-21T07:08:44.564Z,3.20
2023-02-21T07:11:31.440Z,3.50
2023-02-21T07:14:43.700Z,3.80
2023-02-21T07:17:41.295Z,3.17
2023-02-21T07:23:38.817Z,3.28
2023-02-21T07:26:24.161Z,3.38
2023-02-21T07:29:26.735Z,3.78
2023-02-21T07:32:40.947Z,3.55
2023-02-21T07:35:34.517Z,3.28
2023-02-21T07:38:26.176Z,2.15
2023-02-21T07:41:21.681Z,2.28
2023-02-21T07:48:19.436Z,2.72
2023-02-21T07:52:15.150Z,2.03
2023-02-21T07:55:11.650Z,1.50
2023-02-21T07:57:56.553Z,1.80
2023-02-21T08:00:44.814Z,1.85
2023-02-21T08:03:42.300Z,1.95
2023-02-21T08:06:28.354Z,1.73
2023-02-21T08:09:14.050Z,1.40
2023-02-21T08:12:02.668Z,1.52
2023-02-21T08:14:50.179Z,1.58
2023-02-21T08:18:04.150Z,1.92
2023-02-21T08:21:19.407Z,2.17
2023-02-21T08:24:13.837Z,1.45
2023-02-21T08:27:05.446Z,1.92
2023-02-21T08:29:52.489Z,1.52
2023-02-21T08:32:37.597Z,1.45
2023-02-21T08:39:29.699Z,1.65
2023-02-21T08:42:17.950Z,1.40
2023-02-21T08:50:19.120Z,1.55
2023-02-21T08:56:19.732Z,1.90
2023-02-21T08:59:12.873Z,1.90
2023-02-21T09:02:02.135Z,2.20
2023-02-21T09:06:00.675Z,1.52
2023-02-21T09:13:37.043Z,1.55
2023-02-21T09:16:43.939Z,1.30
2023-02-21T09:21:52.966Z,1.42
2023-02-21T09:24:20.307Z,1.70
2023-02-21T09:30:43.762Z,1.52
2023-02-21T09:33:30.475Z,1.33
2023-02-21T09:43:25.300Z,1.80
2023-02-21T09:46:52.589Z,1.42
2023-02-21T09:49:45.064Z,1.42
2023-02-21T09:52:39.405Z,1.70
2023-02-21T09:55:40.072Z,1.50
2023-02-21T09:58:52.812Z,1.70
2023-02-21T10:02:04.505Z,2.47
2023-02-21T10:05:14.790Z,1.50
2023-02-21T10:08:18.801Z,1.70
2023-02-21T10:16:00.557Z,1.50
2023-02-21T10:19:21.759Z,1.48
2023-02-21T10:22:31.075Z,1.63
2023-02-21T10:25:31.033Z,1.67
2023-02-21T10:28:45.298Z,2.05
2023-02-21T10:31:56.270Z,1.58
2023-02-21T10:34:47.013Z,1.70
2023-02-21T10:37:58.584Z,1.90
2023-02-21T10:40:57.914Z,1.70
2023-02-21T10:43:58.815Z,1.60
2023-02-21T10:51:59.474Z,1.60
2023-02-21T10:55:08.410Z,1.50
2023-02-21T10:57:57.220Z,1.38
2023-02-21T11:00:49.112Z,2.42
2023-02-21T11:03:48.387Z,1.75
2023-02-21T11:07:13.804Z,1.60
2023-02-21T11:10:46.589Z,2.90
2023-02-21T11:14:11.081Z,2.50
2023-02-21T11:17:16.042Z,2.80
2023-02-21T11:24:18.102Z,1.90
2023-02-21T11:27:03.100Z,1.92
2023-02-21T11:30:25.677Z,1.92
2023-02-21T11:33:11.168Z,2.08
2023-02-21T11:36:21.630Z,1.92
2023-02-21T11:39:16.372Z,2.80
2023-02-21T11:42:04.281Z,2.92
2023-02-21T11:45:13.078Z,2.72
2023-02-21T11:48:05.842Z,2.10
2023-02-21T11:50:53.166Z,2.00
2023-02-21T11:53:44.454Z,2.08
2023-02-21T11:56:32.670Z,1.95
2023-02-21T11:59:46.744Z,1.42
2023-02-21T12:03:07.301Z,2.30
2023-02-21T12:06:36.323Z,1.48
2023-02-21T12:09:59.071Z,1.80
2023-02-21T12:13:33.973Z,1.80
2023-02-21T12:16:36.115Z,1.90
2023-02-21T12:19:40.066Z,2.20
2023-02-21T12:22:49.105Z,1.52
2023-02-21T12:26:00.879Z,1.85
2023-02-21T12:29:10.300Z,1.80
2023-02-21T12:32:10.191Z,1.80
2023-02-21T12:35:23.432Z,1.77
2023-02-21T12:38:12.037Z,1.73
2023-02-21T12:41:20.728Z,1.60
2023-02-21T12:44:24.911Z,2.63
2023-02-21T12:47:37.712Z,1.52
2023-02-21T12:50:26.896Z,2.25
2023-02-21T12:53:28.483Z,2.50
2023-02-21T12:56:37.858Z,2.30
2023-02-21T12:59:34.453Z,2.28
2023-02-21T13:06:25.533Z,1.70
2023-02-21T13:09:33.158Z,2.70
2023-02-21T13:12:22.936Z,2.42
2023-02-21T13:15:26.202Z,2.33
2023-02-21T13:18:26.025Z,2.70
2023-02-21T13:21:41.843Z,2.50
2023-02-21T13:24:52.438Z,2.45
2023-02-21T13:27:56.208Z,2.30
2023-02-21T13:30:48.829Z,2.10
2023-02-21T13:33:45.082Z,2.60
2023-02-21T13:36:42.958Z,2.65
2023-02-21T13:39:35.998Z,2.53
2023-02-21T13:42:29.989Z,2.30
2023-02-21T13:45:22.197Z,2.13
2023-02-21T13:48:08.214Z,2.78
2023-02-21T13:50:58.732Z,2.38
2023-02-21T13:54:07.609Z,3.05
2023-02-21T13:56:52.526Z,3.30
2023-02-21T13:59:37.623Z,3.45
2023-02-21T14:02:30.491Z,3.13
2023-02-21T14:05:15.639Z,1.95
2023-02-21T14:08:11.770Z,2.90
2023-02-21T14:11:23.887Z,2.90
2023-02-21T14:14:30.645Z,2.50
2023-02-21T14:17:16.209Z,3.50
2023-02-21T14:20:02.062Z,2.47
2023-02-21T14:22:50.904Z,2.55
2023-02-21T14:25:36.536Z,2.55
2023-02-21T14:29:11.085Z,2.42
2023-02-21T14:32:04.465Z,2.58
2023-02-21T14:34:49.290Z,2.88
2023-02-21T14:37:45.779Z,3.10
2023-02-21T14:41:02.321Z,3.25
2023-02-21T14:44:02.451Z,2.85
2023-02-21T14:47:07.202Z,1.95
2023-02-21T14:50:16.644Z,2.65
2023-02-21T14:53:20.499Z,2.83
2023-02-21T14:56:44.119Z,3.40
2023-02-21T14:59:42.194Z,3.60
2023-02-21T15:03:02.940Z,3.20
2023-02-21T15:06:02.827Z,3.20
2023-02-21T15:08:50.655Z,3.00
2023-02-21T15:11:38.049Z,2.72
2023-02-21T15:14:28.897Z,3.78
2023-02-21T15:17:21.488Z,2.72
2023-02-21T15:20:17.180Z,3.63
2023-02-21T15:23:11.121Z,3.30
2023-02-21T15:25:58.222Z,3.75
2023-02-21T15:28:42.969Z,5.32
2023-02-21T15:31:28.043Z,4.65
2023-02-21T15:34:22.849Z,3.42
2023-02-21T15:37:27.263Z,3.78
2023-02-21T15:40:20.726Z,3.10
2023-02-21T15:43:05.894Z,3.60
2023-02-21T15:45:53.253Z,3.35
2023-02-21T15:48:38.609Z,3.08
2023-02-21T15:51:24.864Z,2.70
2023-02-21T15:54:37.815Z,2.80
2023-02-21T15:57:24.553Z,2.50
2023-02-21T16:00:29.434Z,2.70
2023-02-21T16:03:26.660Z,3.60
2023-02-21T16:06:11.367Z,2.92
2023-02-21T16:09:03.211Z,2.85
2023-02-21T16:11:55.979Z,3.00
2023-02-21T16:14:42.350Z,2.80
2023-02-21T16:17:34.766Z,3.17
2023-02-21T16:20:26.427Z,3.53
2023-02-21T16:23:25.312Z,3.70
2023-02-21T16:26:13.142Z,4.00
2023-02-21T16:28:59.290Z,3.47
2023-02-21T16:31:44.360Z,3.20
2023-02-21T16:34:32.745Z,2.90
2023-02-21T16:37:20.218Z,2.75
2023-02-21T16:40:21.795Z,3.05
2023-02-21T16:43:06.811Z,2.70
2023-02-21T16:45:55.203Z,2.83
2023-02-21T16:48:40.102Z,3.08
2023-02-21T16:51:25.446Z,2.17
2023-02-21T16:54:12.249Z,2.28
2023-02-21T16:56:57.557Z,2.35
2023-02-21T16:59:42.850Z,2.42
2023-02-21T17:02:27.792Z,2.00
2023-02-21T17:05:12.836Z,2.50
2023-02-21T17:07:58.108Z,2.38
2023-02-21T17:10:43.688Z,2.75
2023-02-21T17:13:28.555Z,2.75
2023-02-21T17:16:14.022Z,2.67
2023-02-21T17:18:59.083Z,2.85
2023-02-21T17:21:44.656Z,4.28
2023-02-21T17:24:30.041Z,3.75
2023-02-21T17:27:15.071Z,3.08
2023-02-21T17:29:59.781Z,2.85
2023-02-21T17:32:46.536Z,2.88
2023-02-21T17:35:31.266Z,2.35
2023-02-21T17:38:16.242Z,3.40
2023-02-21T17:41:01.308Z,2.38
2023-02-21T17:43:46.692Z,3.10
2023-02-21T17:46:31.639Z,2.72
2023-02-21T17:49:18.546Z,2.50
2023-02-21T17:52:03.321Z,2.17
2023-02-21T17:54:48.204Z,2.40
2023-02-21T17:57:37.497Z,3.10
2023-02-21T18:00:25.728Z,3.78
2023-02-21T18:03:10.742Z,5.50
2023-02-21T18:05:55.368Z,4.97
2023-02-21T18:08:40.336Z,4.00
2023-02-21T18:11:25.791Z,5.53
2023-02-21T18:14:10.697Z,4.85
2023-02-21T18:16:57.202Z,2.30
2023-02-21T18:19:42.266Z,2.22
2023-02-21T18:22:27.317Z,1.80
2023-02-21T18:25:16.148Z,2.22
2023-02-21T18:28:01.476Z,2.70
2023-02-21T18:30:46.973Z,2.22
2023-02-21T18:33:32.240Z,1.98
2023-02-21T18:36:17.322Z,1.50
2023-02-21T18:39:02.294Z,1.15
2023-02-21T18:41:47.970Z,0.88
2023-02-21T18:44:33.598Z,1.10
2023-02-21T18:47:19.683Z,1.13
2023-02-21T18:50:06.733Z,1.13
2023-02-21T18:52:51.895Z,1.30
2023-02-21T18:55:37.257Z,1.40
2023-02-21T18:58:22.150Z,1.90
2023-02-21T19:01:08.914Z,1.52
2023-02-21T19:03:55.433Z,1.75
2023-02-21T19:06:40.258Z,1.73
2023-02-21T19:09:25.959Z,1.80
2023-02-21T19:12:10.563Z,2.00
2023-02-21T19:14:55.724Z,1.60
2023-02-21T19:20:27.363Z,2.05
2023-02-21T19:23:12.603Z,1.70
2023-02-21T19:25:57.825Z,1.90
2023-02-21T19:28:42.544Z,1.92
2023-02-21T19:31:27.527Z,2.10
2023-02-21T19:34:13.621Z,2.15
2023-02-21T19:36:58.649Z,2.15
2023-02-21T19:39:43.906Z,2.20
2023-02-21T19:42:28.892Z,2.80
2023-02-21T19:45:17.683Z,2.65
2023-02-21T19:48:03.325Z,3.42
2023-02-21T19:50:48.451Z,5.22
2023-02-21T19:53:33.010Z,5.93
2023-02-21T19:56:18.622Z,5.90
2023-02-21T19:59:03.661Z,6.20
2023-02-21T20:01:48.732Z,5.38
2023-02-21T20:07:20.112Z,5.00
2023-02-21T20:10:06.103Z,4.57
2023-02-21T20:12:52.293Z,3.97
2023-02-21T20:15:37.281Z,4.10
2023-02-21T20:18:22.367Z,4.78
2023-02-21T20:21:07.758Z,5.63
2023-02-21T20:23:53.857Z,5.57
2023-02-21T20:26:39.439Z,5.63
2023-02-21T20:29:25.258Z,5.22
2023-02-21T20:32:10.602Z,4.15
2023-02-21T20:34:56.252Z,3.63
2023-02-21T20:37:40.991Z,4.38
2023-02-21T20:40:26.674Z,4.68
2023-02-21T20:43:12.368Z,4.47
2023-02-21T20:45:57.450Z,3.05
2023-02-21T20:48:42.392Z,2.40
2023-02-21T20:54:19.230Z,2.50
2023-02-21T20:59:49.156Z,2.03
2023-02-21T21:02:34.150Z,1.60
2023-02-21T21:05:20.834Z,2.10
2023-02-21T21:08:08.297Z,2.10
2023-02-21T21:10:52.937Z,2.20
2023-02-21T21:13:38.007Z,2.33
2023-02-21T21:19:08.116Z,1.80
2023-02-21T21:21:53.345Z,1.63
2023-02-21T21:24:38.975Z,2.20
2023-02-21T21:27:23.624Z,1.85
2023-02-21T21:30:10.497Z,2.00
2023-02-21T21:32:55.258Z,2.10
2023-02-21T21:35:40.065Z,1.60
2023-02-21T21:38:26.445Z,1.67
2023-02-21T21:41:14.559Z,1.50
2023-02-21T21:43:59.726Z,1.52
2023-02-21T21:46:46.478Z,1.70
2023-02-21T21:49:32.890Z,1.88
2023-02-21T21:52:19.739Z,2.63
2023-02-21T21:55:08.794Z,1.85
2023-02-21T21:57:55.288Z,1.92
2023-02-21T22:00:45.636Z,1.85
2023-02-21T22:03:30.596Z,1.60
2023-02-21T22:06:16.031Z,1.55
2023-02-21T22:11:48.342Z,1.85
2023-02-21T22:14:33.910Z,1.98
2023-02-21T22:17:18.689Z,1.63
2023-02-21T22:20:16.708Z,1.90
2023-02-21T22:23:05.024Z,1.67
2023-02-21T22:25:50.262Z,1.40
2023-02-21T22:28:37.854Z,1.50
2023-02-21T22:31:23.056Z,1.35
2023-02-21T22:34:08.514Z,1.40
2023-02-21T22:36:57.350Z,1.35
2023-02-21T22:39:42.104Z,1.90
2023-02-21T22:42:27.168Z,1.67
2023-02-21T22:45:12.531Z,1.33
2023-02-21T22:47:57.567Z,1.50
2023-02-21T22:50:46.427Z,1.60
2023-02-21T22:53:31.208Z,2.30
2023-02-21T22:56:23.200Z,1.75
2023-02-21T22:59:08.318Z,2.47
2023-02-21T23:01:53.365Z,3.33
2023-02-21T23:04:38.503Z,3.88
2023-02-21T23:10:15.876Z,3.22
2023-02-21T23:13:00.591Z,3.38
2023-02-21T23:15:46.811Z,3.95
2023-02-21T23:18:31.635Z,3.88
2023-02-21T23:24:09.935Z,2.55
2023-02-21T23:26:54.980Z,2.28
2023-02-21T23:29:40.212Z,2.30
2023-02-21T23:35:10.171Z,1.95
2023-02-21T23:37:55.267Z,1.88
2023-02-21T23:40:39.824Z,2.08
2023-02-21T23:43:30.152Z,1.95
2023-02-21T23:46:21.524Z,1.95
2023-02-21T23:49:10.544Z,1.88
2023-02-21T23:51:55.599Z,1.65
2023-02-21T23:54:40.693Z,1.60
